Al Mirqab — ZCTS4 — position and weather

sailwx.info

Track history (hours):
 
Tides and Currents Weather Stations Pressure Air Temp Water Temp Dewpoint Dewpoint Depression Visibility Wind Speed Wind Dir Waves Ship Positions

Al Mirqab

Last reported at 2017-Aug-27 00:17 UTC. Time now 2017-Sep-19 13:53 UTC.
Position N 37°57' E 015°39'.
Warning: this ship's position is 23 days out of date.

Length 133 m; draft 5 m.

Type: Pleasure craft. MMSI: 319361000.

Date/timePositionNaut miles runAvg speedWind from/ knotsBaromVisibWave heightAir tempDewpointWater temp
2017-Aug-27 00:17N 37°57' E 015°39'416.1
2017-Aug-27 00:01N 38°01' E 015°35'816.0
2017-Aug-26 23:30N 38°09' E 015°35'713.8
2017-Aug-26 23:01N 38°15' E 015°38'5 9.9
2017-Aug-26 22:30N 38°20' E 015°39'714.9
2017-Aug-26 22:00N 38°27' E 015°35'816.0
2017-Aug-26 21:30N 38°34' E 015°31'815.7
2017-Aug-26 21:01N 38°41' E 015°28'2716.2
2017-Aug-26 19:20N 39°06' E 015°12'1816.5
2017-Aug-26 18:15N 39°22' E 015°02'6816.1
2017-Aug-26 14:00N 40°23' E 014°24'816.0
2017-Aug-26 13:30N 40°31' E 014°19'815.7
2017-Aug-26 13:00N 40°38' E 014°17'815.9
2017-Aug-26 12:30N 40°46' E 014°16'5 2.2
2017-Aug-26 10:25N 40°51' E 014°16'0 0.0
2017-Aug-26 10:00N 40°51' E 014°16'0 0.0
2017-Aug-26 09:29N 40°51' E 014°16'0 0.1
2017-Aug-26 06:15N 40°50' E 014°16'1 6.0
2017-Aug-26 06:00N 40°49' E 014°17'2 4.0
2017-Aug-26 05:25N 40°49' E 014°14'0 0.0
2017-Aug-26 04:38N 40°49' E 014°14'0 0.0
2017-Aug-26 04:23N 40°49' E 014°14'0 0.0
2017-Aug-26 03:56N 40°49' E 014°14'0 0.0
2017-Aug-26 03:24N 40°49' E 014°14'5 1.0
2017-Aug-25 22:43N 40°45' E 014°14'312.8
2017-Aug-25 22:31N 40°42' E 014°14'612.7
2017-Aug-25 22:01N 40°36' E 014°16'4 3.4
2017-Aug-25 20:46N 40°32' E 014°14'0 0.0
2017-Aug-25 20:28N 40°32' E 014°14'0 0.0
2017-Aug-25 07:10N 40°32' E 014°14'0 0.0
2017-Aug-25 06:58N 40°32' E 014°14'0 0.0
2017-Aug-25 06:22N 40°32' E 014°14'0 0.0
2017-Aug-25 05:58N 40°32' E 014°14'0 0.0
2017-Aug-25 05:29N 40°32' E 014°14'0 0.0
2017-Aug-25 04:56N 40°32' E 014°14'0 0.0
2017-Aug-25 04:21N 40°32' E 014°14'0 0.0
2017-Aug-25 03:51N 40°32' E 014°14'0 0.0
2017-Aug-25 03:21N 40°32' E 014°14'0 0.0
2017-Aug-25 03:00N 40°32' E 014°14'0 0.0
2017-Aug-25 02:28N 40°32' E 014°14'0 0.0
2017-Aug-25 01:58N 40°32' E 014°14'0 0.0
2017-Aug-25 01:26N 40°32' E 014°14'0 0.0
2017-Aug-25 00:59N 40°32' E 014°14'0 0.0
2017-Aug-25 00:20N 40°32' E 014°14'0 0.0
2017-Aug-24 23:59N 40°32' E 014°14'0 0.0
2017-Aug-24 22:54N 40°32' E 014°14'0 0.0
2017-Aug-24 22:27N 40°32' E 014°14'0 0.0
2017-Aug-24 21:16N 40°32' E 014°14'0 0.0
2017-Aug-24 20:47N 40°32' E 014°14'0 0.0
2017-Aug-24 20:23N 40°32' E 014°14'0 0.0
2017-Aug-24 19:59N 40°32' E 014°14'0 0.0
2017-Aug-24 19:29N 40°32' E 014°14'0 0.0
2017-Aug-24 18:36N 40°32' E 014°14'0 0.2
2017-Aug-24 18:21N 40°32' E 014°14'0 0.0
2017-Aug-24 18:00N 40°32' E 014°14'2 0.5
2017-Aug-24 13:53N 40°34' E 014°15'410.5
2017-Aug-24 13:30N 40°33' E 014°20'1 2.6
2017-Aug-24 12:59N 40°35' E 014°22'0 0.0
2017-Aug-24 12:25N 40°35' E 014°22'34 7.6
2017-Aug-24 08:00N 40°35' E 013°37'18216.0
2017-Aug-23 20:39N 41°02' E 009°40'  
2017-Aug-19 23:07N 41°04' E 009°33'0 0.0
2017-Aug-19 22:58N 41°04' E 009°33'0 0.0
2017-Aug-19 22:28N 41°04' E 009°33'0 0.0
2017-Aug-19 21:58N 41°04' E 009°33'0 0.0
2017-Aug-19 11:41N 41°04' E 009°33'0 0.0
2017-Aug-19 07:08N 41°04' E 009°33'0 0.0
2017-Aug-19 06:48N 41°04' E 009°33'0 0.0
2017-Aug-19 06:27N 41°04' E 009°33'0 0.0
2017-Aug-18 07:42N 41°04' E 009°33'0 0.1
2017-Aug-18 07:30N 41°04' E 009°33'0 0.0
2017-Aug-18 07:00N 41°04' E 009°33'0 0.0
2017-Aug-18 04:11N 41°04' E 009°33'0 0.0
2017-Aug-18 03:03N 41°04' E 009°33'0 0.1
2017-Aug-18 03:00N 41°04' E 009°33'0 0.0
2017-Aug-18 02:27N 41°04' E 009°33'  
Track history (hours):
 
Tides and Currents Weather Stations Pressure Air Temp Water Temp Dewpoint Dewpoint Depression Visibility Wind Speed Wind Dir Waves Ship Positions

Al Mirqab

Last reported at 2017-Aug-27 00:17 UTC. Time now 2017-Sep-19 13:53 UTC.
Position N 37°57' E 015°39'.
Warning: this ship's position is 23 days out of date.

Length 133 m; draft 5 m.

Type: Pleasure craft. MMSI: 319361000.

Date/timePositionNaut miles runAvg speedWind from/ knotsBaromVisibWave heightAir tempDewpointWater temp
2017-Aug-27 00:17N 37°57' E 015°39'416.1
2017-Aug-27 00:01N 38°01' E 015°35'816.0
2017-Aug-26 23:30N 38°09' E 015°35'713.8
2017-Aug-26 23:01N 38°15' E 015°38'5 9.9
2017-Aug-26 22:30N 38°20' E 015°39'714.9
2017-Aug-26 22:00N 38°27' E 015°35'816.0
2017-Aug-26 21:30N 38°34' E 015°31'815.7
2017-Aug-26 21:01N 38°41' E 015°28'2716.2
2017-Aug-26 19:20N 39°06' E 015°12'1816.5
2017-Aug-26 18:15N 39°22' E 015°02'6816.1
2017-Aug-26 14:00N 40°23' E 014°24'816.0
2017-Aug-26 13:30N 40°31' E 014°19'815.7
2017-Aug-26 13:00N 40°38' E 014°17'815.9
2017-Aug-26 12:30N 40°46' E 014°16'5 2.2
2017-Aug-26 10:25N 40°51' E 014°16'0 0.0
2017-Aug-26 10:00N 40°51' E 014°16'0 0.0
2017-Aug-26 09:29N 40°51' E 014°16'0 0.1
2017-Aug-26 06:15N 40°50' E 014°16'1 6.0
2017-Aug-26 06:00N 40°49' E 014°17'2 4.0
2017-Aug-26 05:25N 40°49' E 014°14'0 0.0
2017-Aug-26 04:38N 40°49' E 014°14'0 0.0
2017-Aug-26 04:23N 40°49' E 014°14'0 0.0
2017-Aug-26 03:56N 40°49' E 014°14'0 0.0
2017-Aug-26 03:24N 40°49' E 014°14'5 1.0
2017-Aug-25 22:43N 40°45' E 014°14'312.8
2017-Aug-25 22:31N 40°42' E 014°14'612.7
2017-Aug-25 22:01N 40°36' E 014°16'4 3.4
2017-Aug-25 20:46N 40°32' E 014°14'0 0.0
2017-Aug-25 20:28N 40°32' E 014°14'0 0.0
2017-Aug-25 07:10N 40°32' E 014°14'0 0.0
2017-Aug-25 06:58N 40°32' E 014°14'0 0.0
2017-Aug-25 06:22N 40°32' E 014°14'0 0.0
2017-Aug-25 05:58N 40°32' E 014°14'0 0.0
2017-Aug-25 05:29N 40°32' E 014°14'0 0.0
2017-Aug-25 04:56N 40°32' E 014°14'0 0.0
2017-Aug-25 04:21N 40°32' E 014°14'0 0.0
2017-Aug-25 03:51N 40°32' E 014°14'0 0.0
2017-Aug-25 03:21N 40°32' E 014°14'0 0.0
2017-Aug-25 03:00N 40°32' E 014°14'0 0.0
2017-Aug-25 02:28N 40°32' E 014°14'0 0.0
2017-Aug-25 01:58N 40°32' E 014°14'0 0.0
2017-Aug-25 01:26N 40°32' E 014°14'0 0.0
2017-Aug-25 00:59N 40°32' E 014°14'0 0.0
2017-Aug-25 00:20N 40°32' E 014°14'0 0.0
2017-Aug-24 23:59N 40°32' E 014°14'0 0.0
2017-Aug-24 22:54N 40°32' E 014°14'0 0.0
2017-Aug-24 22:27N 40°32' E 014°14'0 0.0
2017-Aug-24 21:16N 40°32' E 014°14'0 0.0
2017-Aug-24 20:47N 40°32' E 014°14'0 0.0
2017-Aug-24 20:23N 40°32' E 014°14'0 0.0
2017-Aug-24 19:59N 40°32' E 014°14'0 0.0
2017-Aug-24 19:29N 40°32' E 014°14'0 0.0
2017-Aug-24 18:36N 40°32' E 014°14'0 0.2
2017-Aug-24 18:21N 40°32' E 014°14'0 0.0
2017-Aug-24 18:00N 40°32' E 014°14'2 0.5
2017-Aug-24 13:53N 40°34' E 014°15'410.5
2017-Aug-24 13:30N 40°33' E 014°20'1 2.6
2017-Aug-24 12:59N 40°35' E 014°22'0 0.0
2017-Aug-24 12:25N 40°35' E 014°22'34 7.6
2017-Aug-24 08:00N 40°35' E 013°37'18216.0
2017-Aug-23 20:39N 41°02' E 009°40'  
2017-Aug-19 23:07N 41°04' E 009°33'0 0.0
2017-Aug-19 22:58N 41°04' E 009°33'0 0.0
2017-Aug-19 22:28N 41°04' E 009°33'0 0.0
2017-Aug-19 21:58N 41°04' E 009°33'0 0.0
2017-Aug-19 11:41N 41°04' E 009°33'0 0.0
2017-Aug-19 07:08N 41°04' E 009°33'0 0.0
2017-Aug-19 06:48N 41°04' E 009°33'0 0.0
2017-Aug-19 06:27N 41°04' E 009°33'0 0.0
2017-Aug-18 07:42N 41°04' E 009°33'0 0.1
2017-Aug-18 07:30N 41°04' E 009°33'0 0.0
2017-Aug-18 07:00N 41°04' E 009°33'0 0.0
2017-Aug-18 04:11N 41°04' E 009°33'0 0.0
2017-Aug-18 03:03N 41°04' E 009°33'0 0.1
2017-Aug-18 03:00N 41°04' E 009°33'0 0.0
2017-Aug-18 02:27N 41°04' E 009°33'  

Dump ship's entire track history